sensor_id;sensor_type;location;lat;lon;timestamp;P1;durP1;ratioP1;P2;durP2;ratioP2
38405;SDS011;24186;50.824;4.314;2022-07-29T00:01:47;4.55;;;1.10;;
38405;SDS011;24186;50.824;4.314;2022-07-29T00:04:12;1.27;;;0.80;;
38405;SDS011;24186;50.824;4.314;2022-07-29T00:06:38;2.17;;;1.15;;
38405;SDS011;24186;50.824;4.314;2022-07-29T00:09:05;1.52;;;1.02;;
38405;SDS011;24186;50.824;4.314;2022-07-29T00:11:30;2.00;;;0.95;;
38405;SDS011;24186;50.824;4.314;2022-07-29T00:13:56;36.38;;;3.00;;
38405;SDS011;24186;50.824;4.314;2022-07-29T00:16:22;0.93;;;0.60;;
38405;SDS011;24186;50.824;4.314;2022-07-29T00:18:48;0.68;;;0.60;;
38405;SDS011;24186;50.824;4.314;2022-07-29T00:21:13;4.30;;;0.93;;
38405;SDS011;24186;50.824;4.314;2022-07-29T00:23:40;1.10;;;0.60;;
38405;SDS011;24186;50.824;4.314;2022-07-29T00:26:06;1.45;;;0.75;;
38405;SDS011;24186;50.824;4.314;2022-07-29T00:28:31;3.13;;;0.80;;
38405;SDS011;24186;50.824;4.314;2022-07-29T00:30:57;1.85;;;0.40;;
38405;SDS011;24186;50.824;4.314;2022-07-29T00:33:23;3.65;;;0.70;;
38405;SDS011;24186;50.824;4.314;2022-07-29T00:35:49;1.45;;;1.02;;
38405;SDS011;24186;50.824;4.314;2022-07-29T00:38:15;1.45;;;0.85;;
38405;SDS011;24186;50.824;4.314;2022-07-29T00:40:43;2.65;;;0.60;;
38405;SDS011;24186;50.824;4.314;2022-07-29T00:43:11;0.70;;;0.50;;
38405;SDS011;24186;50.824;4.314;2022-07-29T00:45:37;1.20;;;0.65;;
38405;SDS011;24186;50.824;4.314;2022-07-29T00:48:03;0.77;;;0.63;;
38405;SDS011;24186;50.824;4.314;2022-07-29T00:50:30;1.30;;;0.60;;
38405;SDS011;24186;50.824;4.314;2022-07-29T00:52:57;0.50;;;0.40;;
38405;SDS011;24186;50.824;4.314;2022-07-29T00:55:23;1.45;;;0.75;;
38405;SDS011;24186;50.824;4.314;2022-07-29T00:57:49;0.50;;;0.50;;
38405;SDS011;24186;50.824;4.314;2022-07-29T01:00:17;1.33;;;0.52;;
38405;SDS011;24186;50.824;4.314;2022-07-29T01:02:45;0.95;;;0.52;;
38405;SDS011;24186;50.824;4.314;2022-07-29T01:05:13;0.80;;;0.52;;
38405;SDS011;24186;50.824;4.314;2022-07-29T01:07:39;0.88;;;0.70;;
38405;SDS011;24186;50.824;4.314;2022-07-29T01:10:06;1.70;;;0.45;;
38405;SDS011;24186;50.824;4.314;2022-07-29T01:12:34;3.53;;;1.00;;
38405;SDS011;24186;50.824;4.314;2022-07-29T01:15:02;0.77;;;0.60;;
38405;SDS011;24186;50.824;4.314;2022-07-29T01:26:19;1.00;;;0.90;;
38405;SDS011;24186;50.824;4.314;2022-07-29T01:34:08;1.13;;;0.70;;
38405;SDS011;24186;50.824;4.314;2022-07-29T01:36:49;0.60;;;0.40;;
38405;SDS011;24186;50.824;4.314;2022-07-29T01:39:37;0.85;;;0.50;;
38405;SDS011;24186;50.824;4.314;2022-07-29T01:44:50;5.10;;;0.57;;
38405;SDS011;24186;50.824;4.314;2022-07-29T01:47:27;2.42;;;0.77;;
38405;SDS011;24186;50.824;4.314;2022-07-29T01:49:59;0.68;;;0.40;;
38405;SDS011;24186;50.824;4.314;2022-07-29T01:52:31;0.63;;;0.53;;
38405;SDS011;24186;50.824;4.314;2022-07-29T01:55:03;0.95;;;0.50;;
38405;SDS011;24186;50.824;4.314;2022-07-29T01:57:33;0.75;;;0.40;;
38405;SDS011;24186;50.824;4.314;2022-07-29T02:00:01;0.95;;;0.60;;
38405;SDS011;24186;50.824;4.314;2022-07-29T02:02:28;1.88;;;0.40;;
38405;SDS011;24186;50.824;4.314;2022-07-29T02:04:56;0.52;;;0.52;;
38405;SDS011;24186;50.824;4.314;2022-07-29T02:07:23;1.30;;;0.60;;
38405;SDS011;24186;50.824;4.314;2022-07-29T02:12:20;0.50;;;0.50;;
38405;SDS011;24186;50.824;4.314;2022-07-29T02:14:50;1.27;;;0.65;;
38405;SDS011;24186;50.824;4.314;2022-07-29T02:17:21;2.45;;;0.57;;
38405;SDS011;24186;50.824;4.314;2022-07-29T02:19:50;2.20;;;1.00;;
38405;SDS011;24186;50.824;4.314;2022-07-29T02:22:20;5.45;;;1.27;;
38405;SDS011;24186;50.824;4.314;2022-07-29T02:24:47;7.68;;;1.30;;
38405;SDS011;24186;50.824;4.314;2022-07-29T02:27:15;4.13;;;1.23;;
38405;SDS011;24186;50.824;4.314;2022-07-29T02:29:44;3.45;;;1.38;;
38405;SDS011;24186;50.824;4.314;2022-07-29T02:32:11;2.55;;;1.20;;
38405;SDS011;24186;50.824;4.314;2022-07-29T02:34:41;7.00;;;1.42;;
38405;SDS011;24186;50.824;4.314;2022-07-29T02:37:11;2.38;;;1.15;;
38405;SDS011;24186;50.824;4.314;2022-07-29T02:39:38;6.47;;;1.38;;
38405;SDS011;24186;50.824;4.314;2022-07-29T02:42:07;3.10;;;1.05;;
38405;SDS011;24186;50.824;4.314;2022-07-29T02:44:37;1.98;;;1.13;;
38405;SDS011;24186;50.824;4.314;2022-07-29T02:54:58;6.57;;;1.40;;
38405;SDS011;24186;50.824;4.314;2022-07-29T02:57:36;3.63;;;0.90;;
38405;SDS011;24186;50.824;4.314;2022-07-29T03:00:08;6.38;;;1.25;;
38405;SDS011;24186;50.824;4.314;2022-07-29T03:02:36;2.13;;;1.25;;
38405;SDS011;24186;50.824;4.314;2022-07-29T03:05:06;1.17;;;0.93;;
38405;SDS011;24186;50.824;4.314;2022-07-29T03:07:35;1.83;;;1.13;;
38405;SDS011;24186;50.824;4.314;2022-07-29T03:10:03;7.53;;;1.55;;
38405;SDS011;24186;50.824;4.314;2022-07-29T03:12:31;2.22;;;1.15;;
38405;SDS011;24186;50.824;4.314;2022-07-29T03:14:57;2.08;;;1.15;;
38405;SDS011;24186;50.824;4.314;2022-07-29T03:17:25;1.88;;;1.10;;
38405;SDS011;24186;50.824;4.314;2022-07-29T03:19:51;2.83;;;1.00;;
38405;SDS011;24186;50.824;4.314;2022-07-29T03:22:17;2.20;;;1.35;;
38405;SDS011;24186;50.824;4.314;2022-07-29T03:24:43;2.80;;;0.88;;
38405;SDS011;24186;50.824;4.314;2022-07-29T03:27:09;1.27;;;1.00;;
38405;SDS011;24186;50.824;4.314;2022-07-29T03:29:35;2.53;;;1.05;;
38405;SDS011;24186;50.824;4.314;2022-07-29T03:32:02;2.08;;;1.50;;
38405;SDS011;24186;50.824;4.314;2022-07-29T03:34:29;2.30;;;1.00;;
38405;SDS011;24186;50.824;4.314;2022-07-29T03:36:55;2.55;;;1.15;;
38405;SDS011;24186;50.824;4.314;2022-07-29T03:39:21;1.80;;;1.10;;
38405;SDS011;24186;50.824;4.314;2022-07-29T03:44:18;2.75;;;0.93;;
38405;SDS011;24186;50.824;4.314;2022-07-29T03:46:46;2.13;;;1.33;;
38405;SDS011;24186;50.824;4.314;2022-07-29T03:49:14;2.35;;;1.30;;
38405;SDS011;24186;50.824;4.314;2022-07-29T03:51:41;5.30;;;2.03;;
38405;SDS011;24186;50.824;4.314;2022-07-29T03:54:08;3.40;;;1.15;;
38405;SDS011;24186;50.824;4.314;2022-07-29T03:56:34;1.60;;;1.02;;
38405;SDS011;24186;50.824;4.314;2022-07-29T03:59:02;0.82;;;0.73;;
38405;SDS011;24186;50.824;4.314;2022-07-29T04:01:29;1.88;;;1.00;;
38405;SDS011;24186;50.824;4.314;2022-07-29T04:03:57;1.58;;;0.82;;
38405;SDS011;24186;50.824;4.314;2022-07-29T04:06:24;3.30;;;1.00;;
38405;SDS011;24186;50.824;4.314;2022-07-29T04:08:50;2.08;;;1.30;;
38405;SDS011;24186;50.824;4.314;2022-07-29T04:11:16;2.45;;;1.27;;
38405;SDS011;24186;50.824;4.314;2022-07-29T04:13:42;2.92;;;1.27;;
38405;SDS011;24186;50.824;4.314;2022-07-29T04:16:08;1.38;;;0.85;;
38405;SDS011;24186;50.824;4.314;2022-07-29T04:18:33;1.25;;;1.00;;
38405;SDS011;24186;50.824;4.314;2022-07-29T04:20:59;3.65;;;1.13;;
38405;SDS011;24186;50.824;4.314;2022-07-29T04:23:26;1.83;;;1.30;;
38405;SDS011;24186;50.824;4.314;2022-07-29T04:25:52;5.32;;;1.10;;
38405;SDS011;24186;50.824;4.314;2022-07-29T04:28:18;1.55;;;1.02;;
38405;SDS011;24186;50.824;4.314;2022-07-29T04:30:43;1.90;;;1.25;;
38405;SDS011;24186;50.824;4.314;2022-07-29T04:33:09;4.00;;;1.15;;
38405;SDS011;24186;50.824;4.314;2022-07-29T04:35:36;2.55;;;1.08;;
38405;SDS011;24186;50.824;4.314;2022-07-29T04:38:02;3.38;;;1.33;;
38405;SDS011;24186;50.824;4.314;2022-07-29T04:40:28;1.10;;;1.00;;
38405;SDS011;24186;50.824;4.314;2022-07-29T04:42:54;3.35;;;1.65;;
38405;SDS011;24186;50.824;4.314;2022-07-29T04:45:20;2.92;;;1.27;;
38405;SDS011;24186;50.824;4.314;2022-07-29T04:47:46;2.35;;;1.27;;
38405;SDS011;24186;50.824;4.314;2022-07-29T04:50:11;1.77;;;1.10;;
38405;SDS011;24186;50.824;4.314;2022-07-29T04:52:37;1.70;;;1.08;;
38405;SDS011;24186;50.824;4.314;2022-07-29T04:55:03;1.63;;;1.20;;
38405;SDS011;24186;50.824;4.314;2022-07-29T04:57:30;2.20;;;1.50;;
38405;SDS011;24186;50.824;4.314;2022-07-29T04:59:55;2.38;;;1.15;;
38405;SDS011;24186;50.824;4.314;2022-07-29T05:02:21;2.88;;;1.50;;
38405;SDS011;24186;50.824;4.314;2022-07-29T05:04:47;2.13;;;1.30;;
38405;SDS011;24186;50.824;4.314;2022-07-29T05:07:13;1.75;;;1.25;;
38405;SDS011;24186;50.824;4.314;2022-07-29T05:09:39;2.30;;;1.52;;
38405;SDS011;24186;50.824;4.314;2022-07-29T05:12:05;1.58;;;1.40;;
38405;SDS011;24186;50.824;4.314;2022-07-29T05:14:31;2.50;;;1.15;;
38405;SDS011;24186;50.824;4.314;2022-07-29T05:16:57;4.45;;;1.70;;
38405;SDS011;24186;50.824;4.314;2022-07-29T05:19:23;1.63;;;1.48;;
38405;SDS011;24186;50.824;4.314;2022-07-29T05:21:49;3.33;;;1.35;;
38405;SDS011;24186;50.824;4.314;2022-07-29T05:24:15;2.60;;;1.42;;
38405;SDS011;24186;50.824;4.314;2022-07-29T05:26:41;3.10;;;1.45;;
38405;SDS011;24186;50.824;4.314;2022-07-29T05:29:07;2.53;;;1.40;;
38405;SDS011;24186;50.824;4.314;2022-07-29T05:31:33;2.80;;;1.35;;
38405;SDS011;24186;50.824;4.314;2022-07-29T05:33:59;1.90;;;1.60;;
38405;SDS011;24186;50.824;4.314;2022-07-29T05:36:25;7.30;;;1.67;;
38405;SDS011;24186;50.824;4.314;2022-07-29T05:38:51;2.03;;;1.55;;
38405;SDS011;24186;50.824;4.314;2022-07-29T05:41:19;3.92;;;2.03;;
38405;SDS011;24186;50.824;4.314;2022-07-29T05:43:46;2.60;;;1.45;;
38405;SDS011;24186;50.824;4.314;2022-07-29T05:46:11;6.78;;;1.70;;
38405;SDS011;24186;50.824;4.314;2022-07-29T05:48:39;4.88;;;1.52;;
38405;SDS011;24186;50.824;4.314;2022-07-29T05:51:04;3.25;;;2.05;;
38405;SDS011;24186;50.824;4.314;2022-07-29T05:53:30;3.72;;;1.50;;
38405;SDS011;24186;50.824;4.314;2022-07-29T05:55:56;2.88;;;1.50;;
38405;SDS011;24186;50.824;4.314;2022-07-29T05:58:22;2.10;;;1.45;;
38405;SDS011;24186;50.824;4.314;2022-07-29T06:00:47;2.80;;;1.50;;
38405;SDS011;24186;50.824;4.314;2022-07-29T06:03:13;4.15;;;1.90;;
38405;SDS011;24186;50.824;4.314;2022-07-29T06:05:39;4.72;;;2.20;;
38405;SDS011;24186;50.824;4.314;2022-07-29T06:08:05;2.47;;;1.50;;
38405;SDS011;24186;50.824;4.314;2022-07-29T06:10:32;3.17;;;1.85;;
38405;SDS011;24186;50.824;4.314;2022-07-29T06:12:59;3.95;;;1.70;;
38405;SDS011;24186;50.824;4.314;2022-07-29T06:15:24;4.88;;;1.60;;
38405;SDS011;24186;50.824;4.314;2022-07-29T06:17:51;1.55;;;1.30;;
38405;SDS011;24186;50.824;4.314;2022-07-29T06:20:17;4.20;;;1.67;;
38405;SDS011;24186;50.824;4.314;2022-07-29T06:22:43;1.75;;;1.60;;
38405;SDS011;24186;50.824;4.314;2022-07-29T06:25:09;3.13;;;1.70;;
38405;SDS011;24186;50.824;4.314;2022-07-29T06:27:34;2.35;;;1.50;;
38405;SDS011;24186;50.824;4.314;2022-07-29T06:30:00;2.30;;;1.52;;
38405;SDS011;24186;50.824;4.314;2022-07-29T06:32:27;2.30;;;1.63;;
38405;SDS011;24186;50.824;4.314;2022-07-29T06:34:52;4.60;;;1.52;;
38405;SDS011;24186;50.824;4.314;2022-07-29T06:37:18;4.43;;;1.65;;
38405;SDS011;24186;50.824;4.314;2022-07-29T06:39:44;3.00;;;1.67;;
38405;SDS011;24186;50.824;4.314;2022-07-29T06:42:09;2.35;;;1.45;;
38405;SDS011;24186;50.824;4.314;2022-07-29T06:44:35;2.22;;;1.40;;
38405;SDS011;24186;50.824;4.314;2022-07-29T06:47:01;1.83;;;1.27;;
38405;SDS011;24186;50.824;4.314;2022-07-29T06:49:27;2.95;;;1.90;;
38405;SDS011;24186;50.824;4.314;2022-07-29T06:51:53;1.60;;;1.35;;
38405;SDS011;24186;50.824;4.314;2022-07-29T06:54:19;2.45;;;1.35;;
38405;SDS011;24186;50.824;4.314;2022-07-29T06:56:46;3.17;;;1.80;;
38405;SDS011;24186;50.824;4.314;2022-07-29T06:59:12;3.17;;;1.40;;
38405;SDS011;24186;50.824;4.314;2022-07-29T07:01:39;2.25;;;1.77;;
38405;SDS011;24186;50.824;4.314;2022-07-29T07:04:06;1.67;;;1.05;;
38405;SDS011;24186;50.824;4.314;2022-07-29T07:06:33;2.35;;;1.27;;
38405;SDS011;24186;50.824;4.314;2022-07-29T07:08:59;1.88;;;1.27;;
38405;SDS011;24186;50.824;4.314;2022-07-29T07:11:25;3.55;;;1.45;;
38405;SDS011;24186;50.824;4.314;2022-07-29T07:13:51;4.55;;;1.70;;
38405;SDS011;24186;50.824;4.314;2022-07-29T07:16:17;3.00;;;1.58;;
38405;SDS011;24186;50.824;4.314;2022-07-29T07:18:43;2.05;;;1.65;;
38405;SDS011;24186;50.824;4.314;2022-07-29T07:21:10;1.90;;;1.70;;
38405;SDS011;24186;50.824;4.314;2022-07-29T07:23:36;4.47;;;1.45;;
38405;SDS011;24186;50.824;4.314;2022-07-29T07:26:02;2.45;;;1.40;;
38405;SDS011;24186;50.824;4.314;2022-07-29T07:28:28;1.95;;;1.33;;
38405;SDS011;24186;50.824;4.314;2022-07-29T07:30:54;1.85;;;1.45;;
38405;SDS011;24186;50.824;4.314;2022-07-29T07:33:19;2.65;;;1.48;;
38405;SDS011;24186;50.824;4.314;2022-07-29T07:35:45;3.90;;;1.73;;
38405;SDS011;24186;50.824;4.314;2022-07-29T07:38:11;2.08;;;1.35;;
38405;SDS011;24186;50.824;4.314;2022-07-29T07:40:37;2.17;;;1.42;;
38405;SDS011;24186;50.824;4.314;2022-07-29T07:43:03;4.63;;;1.40;;
38405;SDS011;24186;50.824;4.314;2022-07-29T07:45:28;3.55;;;1.80;;
38405;SDS011;24186;50.824;4.314;2022-07-29T07:47:54;3.28;;;1.70;;
38405;SDS011;24186;50.824;4.314;2022-07-29T07:50:20;4.75;;;1.48;;
38405;SDS011;24186;50.824;4.314;2022-07-29T07:52:46;5.57;;;2.00;;
38405;SDS011;24186;50.824;4.314;2022-07-29T07:55:13;1.83;;;1.52;;
38405;SDS011;24186;50.824;4.314;2022-07-29T07:57:39;1.58;;;1.23;;
38405;SDS011;24186;50.824;4.314;2022-07-29T08:00:05;4.38;;;1.48;;
38405;SDS011;24186;50.824;4.314;2022-07-29T08:02:31;1.40;;;1.10;;
38405;SDS011;24186;50.824;4.314;2022-07-29T08:04:57;2.95;;;1.08;;
38405;SDS011;24186;50.824;4.314;2022-07-29T08:07:24;1.52;;;0.85;;
38405;SDS011;24186;50.824;4.314;2022-07-29T08:09:50;1.80;;;1.00;;
38405;SDS011;24186;50.824;4.314;2022-07-29T08:12:15;1.77;;;1.30;;
38405;SDS011;24186;50.824;4.314;2022-07-29T08:14:41;1.63;;;1.50;;
38405;SDS011;24186;50.824;4.314;2022-07-29T08:17:06;1.15;;;0.95;;
38405;SDS011;24186;50.824;4.314;2022-07-29T08:19:32;2.58;;;0.93;;
38405;SDS011;24186;50.824;4.314;2022-07-29T08:21:58;1.75;;;1.10;;
38405;SDS011;24186;50.824;4.314;2022-07-29T08:24:24;2.33;;;0.93;;
38405;SDS011;24186;50.824;4.314;2022-07-29T08:27:08;2.90;;;1.25;;
38405;SDS011;24186;50.824;4.314;2022-07-29T08:29:36;2.88;;;1.25;;
38405;SDS011;24186;50.824;4.314;2022-07-29T08:32:03;3.70;;;1.30;;
38405;SDS011;24186;50.824;4.314;2022-07-29T08:34:29;5.55;;;1.20;;
38405;SDS011;24186;50.824;4.314;2022-07-29T08:36:55;1.83;;;1.52;;
38405;SDS011;24186;50.824;4.314;2022-07-29T08:39:21;3.10;;;1.63;;
38405;SDS011;24186;50.824;4.314;2022-07-29T08:41:48;1.90;;;1.50;;
38405;SDS011;24186;50.824;4.314;2022-07-29T08:44:17;2.25;;;1.38;;
38405;SDS011;24186;50.824;4.314;2022-07-29T08:46:44;2.17;;;1.65;;
38405;SDS011;24186;50.824;4.314;2022-07-29T08:49:10;2.28;;;1.27;;
38405;SDS011;24186;50.824;4.314;2022-07-29T08:51:36;18.88;;;2.55;;
38405;SDS011;24186;50.824;4.314;2022-07-29T08:54:05;4.80;;;1.80;;
38405;SDS011;24186;50.824;4.314;2022-07-29T08:56:31;4.55;;;1.65;;
38405;SDS011;24186;50.824;4.314;2022-07-29T08:58:58;5.38;;;1.60;;
38405;SDS011;24186;50.824;4.314;2022-07-29T09:01:25;4.43;;;1.30;;
38405;SDS011;24186;50.824;4.314;2022-07-29T09:06:20;4.60;;;1.67;;
38405;SDS011;24186;50.824;4.314;2022-07-29T09:08:47;3.28;;;1.85;;
38405;SDS011;24186;50.824;4.314;2022-07-29T09:11:13;12.93;;;2.13;;
38405;SDS011;24186;50.824;4.314;2022-07-29T09:13:39;3.95;;;1.60;;
38405;SDS011;24186;50.824;4.314;2022-07-29T09:16:05;3.13;;;1.58;;
38405;SDS011;24186;50.824;4.314;2022-07-29T09:18:35;5.25;;;1.45;;
38405;SDS011;24186;50.824;4.314;2022-07-29T09:21:02;1.60;;;1.27;;
38405;SDS011;24186;50.824;4.314;2022-07-29T09:26:30;3.97;;;1.45;;
38405;SDS011;24186;50.824;4.314;2022-07-29T09:28:57;3.47;;;1.40;;
38405;SDS011;24186;50.824;4.314;2022-07-29T09:31:33;4.63;;;2.03;;
38405;SDS011;24186;50.824;4.314;2022-07-29T09:34:00;4.30;;;1.48;;
38405;SDS011;24186;50.824;4.314;2022-07-29T09:36:26;5.38;;;1.77;;
38405;SDS011;24186;50.824;4.314;2022-07-29T09:39:01;4.35;;;1.27;;
38405;SDS011;24186;50.824;4.314;2022-07-29T09:41:28;4.75;;;2.10;;
38405;SDS011;24186;50.824;4.314;2022-07-29T09:43:55;5.82;;;1.50;;
38405;SDS011;24186;50.824;4.314;2022-07-29T09:46:20;7.25;;;1.50;;
38405;SDS011;24186;50.824;4.314;2022-07-29T09:49:04;4.20;;;1.27;;
38405;SDS011;24186;50.824;4.314;2022-07-29T09:51:32;7.25;;;1.40;;
38405;SDS011;24186;50.824;4.314;2022-07-29T09:53:58;5.68;;;1.58;;
38405;SDS011;24186;50.824;4.314;2022-07-29T09:56:43;8.98;;;2.30;;
38405;SDS011;24186;50.824;4.314;2022-07-29T09:59:09;8.60;;;2.08;;
38405;SDS011;24186;50.824;4.314;2022-07-29T10:01:36;13.50;;;2.70;;
38405;SDS011;24186;50.824;4.314;2022-07-29T10:04:02;8.60;;;2.08;;
38405;SDS011;24186;50.824;4.314;2022-07-29T10:06:28;6.70;;;2.45;;
38405;SDS011;24186;50.824;4.314;2022-07-29T10:08:54;6.13;;;1.70;;
38405;SDS011;24186;50.824;4.314;2022-07-29T10:11:19;3.83;;;1.70;;
38405;SDS011;24186;50.824;4.314;2022-07-29T10:13:46;7.90;;;1.92;;
38405;SDS011;24186;50.824;4.314;2022-07-29T10:16:13;5.15;;;1.98;;
38405;SDS011;24186;50.824;4.314;2022-07-29T10:22:04;8.30;;;1.88;;
38405;SDS011;24186;50.824;4.314;2022-07-29T10:24:31;6.30;;;1.55;;
38405;SDS011;24186;50.824;4.314;2022-07-29T10:26:59;3.60;;;1.92;;
38405;SDS011;24186;50.824;4.314;2022-07-29T10:29:25;5.32;;;1.70;;
38405;SDS011;24186;50.824;4.314;2022-07-29T10:43:54;4.00;;;1.65;;
38405;SDS011;24186;50.824;4.314;2022-07-29T10:46:34;4.10;;;1.35;;
38405;SDS011;24186;50.824;4.314;2022-07-29T10:49:08;1.27;;;1.10;;
38405;SDS011;24186;50.824;4.314;2022-07-29T10:51:53;1.90;;;1.05;;
38405;SDS011;24186;50.824;4.314;2022-07-29T10:57:50;2.95;;;1.52;;
38405;SDS011;24186;50.824;4.314;2022-07-29T11:07:24;3.53;;;1.40;;
38405;SDS011;24186;50.824;4.314;2022-07-29T11:15:11;3.25;;;1.10;;
38405;SDS011;24186;50.824;4.314;2022-07-29T11:23:20;2.47;;;1.20;;
38405;SDS011;24186;50.824;4.314;2022-07-29T11:34:15;3.45;;;1.65;;
38405;SDS011;24186;50.824;4.314;2022-07-29T11:45:06;3.40;;;1.52;;
38405;SDS011;24186;50.824;4.314;2022-07-29T11:50:28;3.83;;;1.45;;
38405;SDS011;24186;50.824;4.314;2022-07-29T11:52:55;4.93;;;1.80;;
38405;SDS011;24186;50.824;4.314;2022-07-29T11:55:22;5.78;;;1.80;;
38405;SDS011;24186;50.824;4.314;2022-07-29T11:57:56;3.92;;;2.00;;
38405;SDS011;24186;50.824;4.314;2022-07-29T12:03:00;4.60;;;1.90;;
38405;SDS011;24186;50.824;4.314;2022-07-29T12:05:31;3.20;;;2.00;;
38405;SDS011;24186;50.824;4.314;2022-07-29T12:10:32;4.70;;;1.90;;
38405;SDS011;24186;50.824;4.314;2022-07-29T12:12:58;5.65;;;1.90;;
38405;SDS011;24186;50.824;4.314;2022-07-29T12:15:24;6.38;;;1.70;;
38405;SDS011;24186;50.824;4.314;2022-07-29T12:17:51;6.43;;;2.72;;
38405;SDS011;24186;50.824;4.314;2022-07-29T12:20:23;4.30;;;1.90;;
38405;SDS011;24186;50.824;4.314;2022-07-29T12:22:51;4.38;;;1.70;;
38405;SDS011;24186;50.824;4.314;2022-07-29T12:25:19;5.82;;;2.92;;
38405;SDS011;24186;50.824;4.314;2022-07-29T12:27:45;4.10;;;1.65;;
38405;SDS011;24186;50.824;4.314;2022-07-29T12:30:13;4.30;;;2.25;;
38405;SDS011;24186;50.824;4.314;2022-07-29T12:32:44;4.40;;;1.95;;
38405;SDS011;24186;50.824;4.314;2022-07-29T12:35:11;4.00;;;1.80;;
38405;SDS011;24186;50.824;4.314;2022-07-29T12:37:40;2.33;;;1.97;;
38405;SDS011;24186;50.824;4.314;2022-07-29T12:40:07;5.05;;;2.10;;
38405;SDS011;24186;50.824;4.314;2022-07-29T12:42:34;2.53;;;1.60;;
38405;SDS011;24186;50.824;4.314;2022-07-29T12:45:01;2.05;;;1.60;;
38405;SDS011;24186;50.824;4.314;2022-07-29T12:47:27;6.20;;;1.75;;
38405;SDS011;24186;50.824;4.314;2022-07-29T12:50:09;6.13;;;1.92;;
38405;SDS011;24186;50.824;4.314;2022-07-29T12:52:36;11.25;;;2.30;;
38405;SDS011;24186;50.824;4.314;2022-07-29T12:55:02;7.93;;;2.63;;
38405;SDS011;24186;50.824;4.314;2022-07-29T12:57:29;4.40;;;1.73;;
38405;SDS011;24186;50.824;4.314;2022-07-29T13:00:28;9.95;;;2.60;;
38405;SDS011;24186;50.824;4.314;2022-07-29T13:02:55;7.05;;;2.38;;
38405;SDS011;24186;50.824;4.314;2022-07-29T13:05:22;10.85;;;2.35;;
38405;SDS011;24186;50.824;4.314;2022-07-29T13:07:49;4.00;;;1.90;;
38405;SDS011;24186;50.824;4.314;2022-07-29T13:10:19;5.60;;;2.15;;
38405;SDS011;24186;50.824;4.314;2022-07-29T13:13:08;2.78;;;1.67;;
38405;SDS011;24186;50.824;4.314;2022-07-29T13:15:39;5.07;;;1.95;;
38405;SDS011;24186;50.824;4.314;2022-07-29T13:18:26;3.20;;;1.73;;
38405;SDS011;24186;50.824;4.314;2022-07-29T13:20:53;3.50;;;1.85;;
38405;SDS011;24186;50.824;4.314;2022-07-29T13:23:19;3.80;;;1.98;;
38405;SDS011;24186;50.824;4.314;2022-07-29T13:25:44;3.75;;;1.70;;
38405;SDS011;24186;50.824;4.314;2022-07-29T13:28:10;8.05;;;2.35;;
38405;SDS011;24186;50.824;4.314;2022-07-29T13:30:36;2.28;;;1.83;;
38405;SDS011;24186;50.824;4.314;2022-07-29T13:33:04;2.83;;;2.10;;
38405;SDS011;24186;50.824;4.314;2022-07-29T13:35:29;4.38;;;2.20;;
38405;SDS011;24186;50.824;4.314;2022-07-29T13:37:55;2.75;;;1.75;;
38405;SDS011;24186;50.824;4.314;2022-07-29T13:40:21;6.25;;;1.83;;
38405;SDS011;24186;50.824;4.314;2022-07-29T13:42:47;3.58;;;1.75;;
38405;SDS011;24186;50.824;4.314;2022-07-29T13:45:13;3.60;;;2.05;;
38405;SDS011;24186;50.824;4.314;2022-07-29T13:47:39;3.22;;;2.05;;
38405;SDS011;24186;50.824;4.314;2022-07-29T13:50:05;2.55;;;1.67;;
38405;SDS011;24186;50.824;4.314;2022-07-29T13:52:32;3.45;;;1.70;;
38405;SDS011;24186;50.824;4.314;2022-07-29T13:54:58;3.90;;;1.80;;
38405;SDS011;24186;50.824;4.314;2022-07-29T13:57:24;4.20;;;1.73;;
38405;SDS011;24186;50.824;4.314;2022-07-29T13:59:50;3.97;;;1.92;;
38405;SDS011;24186;50.824;4.314;2022-07-29T14:02:16;2.53;;;1.35;;
38405;SDS011;24186;50.824;4.314;2022-07-29T14:04:41;5.57;;;1.92;;
38405;SDS011;24186;50.824;4.314;2022-07-29T14:07:07;1.80;;;1.60;;
38405;SDS011;24186;50.824;4.314;2022-07-29T14:09:33;2.80;;;1.20;;
38405;SDS011;24186;50.824;4.314;2022-07-29T14:11:59;3.10;;;1.83;;
38405;SDS011;24186;50.824;4.314;2022-07-29T14:14:24;2.28;;;1.30;;
38405;SDS011;24186;50.824;4.314;2022-07-29T14:16:50;3.65;;;2.00;;
38405;SDS011;24186;50.824;4.314;2022-07-29T14:19:16;4.50;;;1.35;;
38405;SDS011;24186;50.824;4.314;2022-07-29T14:21:41;7.10;;;1.48;;
38405;SDS011;24186;50.824;4.314;2022-07-29T14:24:07;3.15;;;1.70;;
38405;SDS011;24186;50.824;4.314;2022-07-29T14:26:33;5.55;;;1.58;;
38405;SDS011;24186;50.824;4.314;2022-07-29T14:28:58;1.73;;;1.35;;
38405;SDS011;24186;50.824;4.314;2022-07-29T14:31:24;3.90;;;1.60;;
38405;SDS011;24186;50.824;4.314;2022-07-29T14:33:50;4.28;;;2.05;;
38405;SDS011;24186;50.824;4.314;2022-07-29T14:36:15;2.70;;;1.60;;
38405;SDS011;24186;50.824;4.314;2022-07-29T14:38:41;3.55;;;1.42;;
38405;SDS011;24186;50.824;4.314;2022-07-29T14:41:07;3.25;;;1.98;;
38405;SDS011;24186;50.824;4.314;2022-07-29T14:43:33;2.10;;;1.52;;
38405;SDS011;24186;50.824;4.314;2022-07-29T14:45:59;3.63;;;1.55;;
38405;SDS011;24186;50.824;4.314;2022-07-29T14:48:25;2.67;;;1.95;;
38405;SDS011;24186;50.824;4.314;2022-07-29T14:50:51;2.08;;;1.50;;
38405;SDS011;24186;50.824;4.314;2022-07-29T14:53:17;2.25;;;1.30;;
38405;SDS011;24186;50.824;4.314;2022-07-29T14:55:43;3.20;;;1.40;;
38405;SDS011;24186;50.824;4.314;2022-07-29T14:58:09;4.60;;;1.67;;
38405;SDS011;24186;50.824;4.314;2022-07-29T15:00:34;2.30;;;1.63;;
38405;SDS011;24186;50.824;4.314;2022-07-29T15:03:02;2.67;;;1.45;;
38405;SDS011;24186;50.824;4.314;2022-07-29T15:05:28;2.38;;;1.00;;
38405;SDS011;24186;50.824;4.314;2022-07-29T15:07:54;12.02;;;1.98;;
38405;SDS011;24186;50.824;4.314;2022-07-29T15:10:20;2.35;;;1.30;;
38405;SDS011;24186;50.824;4.314;2022-07-29T15:12:46;2.17;;;1.55;;
38405;SDS011;24186;50.824;4.314;2022-07-29T15:15:11;5.03;;;1.73;;
38405;SDS011;24186;50.824;4.314;2022-07-29T15:17:37;7.70;;;2.10;;
38405;SDS011;24186;50.824;4.314;2022-07-29T15:20:03;2.83;;;1.45;;
38405;SDS011;24186;50.824;4.314;2022-07-29T15:22:29;1.73;;;1.20;;
38405;SDS011;24186;50.824;4.314;2022-07-29T15:24:55;1.98;;;1.50;;
38405;SDS011;24186;50.824;4.314;2022-07-29T15:27:21;6.28;;;1.65;;
38405;SDS011;24186;50.824;4.314;2022-07-29T15:29:46;3.15;;;1.58;;
38405;SDS011;24186;50.824;4.314;2022-07-29T15:32:12;2.03;;;1.33;;
38405;SDS011;24186;50.824;4.314;2022-07-29T15:34:39;5.80;;;2.00;;
38405;SDS011;24186;50.824;4.314;2022-07-29T15:37:05;5.05;;;1.77;;
38405;SDS011;24186;50.824;4.314;2022-07-29T15:39:30;4.38;;;1.15;;
38405;SDS011;24186;50.824;4.314;2022-07-29T15:41:56;4.63;;;1.30;;
38405;SDS011;24186;50.824;4.314;2022-07-29T15:44:24;3.70;;;1.63;;
38405;SDS011;24186;50.824;4.314;2022-07-29T15:46:49;4.15;;;1.60;;
38405;SDS011;24186;50.824;4.314;2022-07-29T15:49:31;4.72;;;1.50;;
38405;SDS011;24186;50.824;4.314;2022-07-29T15:52:02;2.22;;;1.42;;
38405;SDS011;24186;50.824;4.314;2022-07-29T15:54:33;6.18;;;1.67;;
38405;SDS011;24186;50.824;4.314;2022-07-29T15:57:00;3.95;;;1.90;;
38405;SDS011;24186;50.824;4.314;2022-07-29T15:59:27;2.40;;;1.63;;
38405;SDS011;24186;50.824;4.314;2022-07-29T16:01:52;4.72;;;1.70;;
38405;SDS011;24186;50.824;4.314;2022-07-29T16:04:18;1.67;;;1.58;;
38405;SDS011;24186;50.824;4.314;2022-07-29T16:06:44;2.20;;;1.45;;
38405;SDS011;24186;50.824;4.314;2022-07-29T16:09:11;2.03;;;1.52;;
38405;SDS011;24186;50.824;4.314;2022-07-29T16:11:37;2.75;;;1.40;;
38405;SDS011;24186;50.824;4.314;2022-07-29T16:14:03;2.72;;;1.90;;
38405;SDS011;24186;50.824;4.314;2022-07-29T16:16:28;2.45;;;2.10;;
38405;SDS011;24186;50.824;4.314;2022-07-29T16:18:54;3.00;;;2.03;;
38405;SDS011;24186;50.824;4.314;2022-07-29T16:21:20;3.05;;;1.90;;
38405;SDS011;24186;50.824;4.314;2022-07-29T16:23:49;4.45;;;1.83;;
38405;SDS011;24186;50.824;4.314;2022-07-29T16:26:15;2.28;;;1.45;;